• Join FlightAware (Why Join?)
  • Login
  • US Flag 
07:23PM EDT


 

Airport Tracker/Info


-or-


 

Live Flight TrackerFlight Track Log ✈ UAL4498 ✈ 28-Apr-2013 ✈ KEWR - KIND

Flight Track Log - Related Links

Times and Time Zones

All times are in EDT time to prevent confusion due to time zone crossing. See the UAL4498 flight status page for this flight to view local times or setup timezone preferences in your user account.

Time Position Orientation Groundspeed Altitude Reporting Facility
EDT Latitude Longitude Course Direction KTS MPH feet Rate Location/Type
10:48AM 40.6667 -74.1833 276° West 171 197 1,300  Level New York TRACON
10:49AM 40.6333 -74.2167 217° Southwest 215 247 2,900 1,800 Climbing New York TRACON
10:50AM 40.6500 -74.3000 285° West 253 291 5,000 2,100 Climbing New York TRACON
10:51AM 40.7457 -74.6520 277° West  Level FlightAware Approximate
10:52AM 40.7561 -74.7782 276° West  Level FlightAware Approximate
10:52AM 40.7069 -74.4969 291° West 265 305 9,900  Level New York Center
10:53AM 40.7657 -74.9045 276° West  Level FlightAware Approximate
10:53AM 40.7244 -74.6019 282° West 290 334 11,100  Level New York Center
10:54AM 40.7450 -74.7344 282° West 326 375 12,300 1,200 Climbing New York Center
10:55AM 40.7622 -74.8450 282° West 344 396 13,600 1,500 Climbing New York Center
10:56AM 40.7800 -74.9858 280° West 354 407 15,300 1,320 Climbing New York Center
10:57AM 40.7547 -75.1103 255° West 349 402 16,300 900 Climbing New York Center
10:58AM 40.7189 -75.2339 249° West 358 412 17,200 900 Climbing New York Center
10:59AM 40.6808 -75.3603 248° West 364 419 18,100 960 Climbing New York Center
11:00AM 40.6467 -75.4864 250° West 370 426 19,200 1,140 Climbing New York Center
11:01AM 40.6128 -75.6017 249° West 370 426 20,400 1,200 Climbing New York Center
11:02AM 40.5739 -75.7328 249° West 370 426 21,600 1,200 Climbing New York Center
11:03AM 40.5372 -75.8614 249° West 375 432 22,800 1,200 Climbing New York Center
11:04AM 40.4942 -75.9892 246° West 381 438 24,100 1,320 Climbing New York Center
11:05AM 40.4572 -76.1144 249° West 386 444 25,500 1,320 Climbing New York Center
11:06AM 40.4206 -76.2372 249° West 379 436 26,800 1,200 Climbing New York Center
11:07AM 40.3836 -76.3569 248° West 374 430 28,000 1,080 Climbing New York Center
11:08AM 40.3486 -76.4767 249° West 367 422 29,000 960 Climbing New York Center
11:09AM 40.3258 -76.6028 257° West 362 417 30,000 960 Climbing New York Center
11:10AM 40.3069 -76.7292 259° West 362 417 31,000 900 Climbing New York Center
11:11AM 40.2881 -76.8553 259° West 357 411 31,900 840 Climbing New York Center
11:12AM 40.2642 -76.9947 257° West 357 411 32,700 960 Climbing New York Center
11:13AM 40.2475 -77.1131 260° West 362 417 33,900 1,080 Climbing New York Center
11:14AM 40.2278 -77.2417 259° West 367 422 34,900 720 Climbing New York Center
11:16AM 40.1919 -77.4872 259° West 352 405 36,000 360 Climbing Cleveland Center
11:17AM 40.1725 -77.6186 259° West 352 405 36,000  Level Cleveland Center
11:18AM 40.1528 -77.7500 259° West 365 420 36,000  Level Cleveland Center
11:19AM 40.1394 -77.8836 263° West 370 426 36,000  Level Cleveland Center
11:20AM 40.1361 -78.0086 268° West 385 443 36,000  Level Cleveland Center
11:21AM 40.1389 -78.1417 272° West 385 443 36,000  Level Cleveland Center
11:22AM 40.1458 -78.2744 274° West 373 429 36,000  Level Cleveland Center
11:23AM 40.1525 -78.4019 274° West 368 423 36,000  Level Cleveland Center
11:24AM 40.1592 -78.5347 274° West 368 423 36,000  Level Cleveland Center
11:25AM 40.1636 -78.6678 273° West 368 423 36,000  Level Cleveland Center
11:26AM 40.1700 -78.7981 274° West 368 423 36,000  Level Cleveland Center
11:27AM 40.1739 -78.9311 272° West 368 423 36,000  Level Cleveland Center
11:28AM 40.1800 -79.0642 273° West 368 423 36,000  Level Cleveland Center
11:29AM 40.1839 -79.1972 272° West 368 423 36,000  Level Cleveland Center
11:30AM 40.1917 -79.3436 274° West 368 423 36,000  Level Cleveland Center
11:31AM 40.1972 -79.4742 273° West 363 418 36,000  Level Cleveland Center
11:32AM 40.2006 -79.6044 272° West 363 418 36,000  Level Cleveland Center
11:33AM 40.2058 -79.7431 273° West 369 425 36,000  Level Cleveland Center
11:34AM 40.2089 -79.8789 272° West 369 425 36,000  Level Cleveland Center
11:35AM 40.2117 -80.0150 272° West 379 436 36,000  Level Cleveland Center
11:36AM 40.2164 -80.1536 273° West 381 438 36,000  Level Cleveland Center
11:37AM 40.2189 -80.2894 271° West 381 438 36,000  Level Cleveland Center
11:38AM 40.2233 -80.4281 272° West 376 433 36,000  Level Cleveland Center
11:39AM 40.2278 -80.5586 273° West 376 433 36,000  Level Cleveland Center
11:40AM 40.2317 -80.6947 272° West 376 433 36,000  Level Cleveland Center
11:42AM 40.2325 -80.9067 270° West 368 423 36,000  Level Indianapolis Center
11:43AM 40.2347 -81.0431 271° West 371 427 36,000  Level Indianapolis Center
11:44AM 40.2381 -81.1819 272° West 378 435 36,000  Level Indianapolis Center
11:45AM 40.2403 -81.3208 271° West 376 433 36,000  Level Indianapolis Center
11:46AM 40.2425 -81.4539 271° West 365 420 36,000  Level Indianapolis Center
11:47AM 40.2436 -81.5897 271° West 368 423 36,000  Level Indianapolis Center
11:48AM 40.2458 -81.7233 271° West 366 421 36,000  Level Indianapolis Center
11:49AM 40.2481 -81.8617 271° West 374 430 36,000  Level Indianapolis Center
11:50AM 40.2494 -82.0233 271° West 376 433 36,000  Level Indianapolis Center
11:51AM 40.2514 -82.1594 271° West 372 428 36,000  Level Indianapolis Center
11:52AM 40.2528 -82.2964 271° West 373 429 36,000  Level Indianapolis Center
11:53AM 40.2539 -82.4339 271° West 374 430 36,000 -540 Level Indianapolis Center
11:54AM 40.2556 -82.5722 271° West 376 433 35,000 -1,320 Descending Indianapolis Center
11:55AM 40.2558 -82.7039 270° West 363 418 33,300 -1,680 Descending Indianapolis Center
11:56AM 40.2561 -82.8428 270° West 366 421 31,600 -1,380 Descending Indianapolis Center
11:57AM 40.2567 -82.9769 270° West 366 421 30,500 -840 Descending Indianapolis Center
11:58AM 40.2569 -83.1150 270° West 377 434 30,000 -300 Descending Indianapolis Center
11:59AM 40.2567 -83.2522 270° West 376 433 30,000  Level Indianapolis Center
12:00PM 40.2572 -83.3903 270° West 378 435 30,000  Level Indianapolis Center
12:01PM 40.2697 -83.5300 277° West 386 444 30,000 -240 Level Indianapolis Center
12:02PM 40.2897 -83.6950 279° West 392 451 29,600 -960 Descending Indianapolis Center
12:03PM 40.2875 -83.8414 269° West 398 458 28,100 -1,560 Descending Indianapolis Center
12:04PM 40.2833 -83.9928 268° West 416 479 26,500 -1,560 Descending Indianapolis Center
12:05PM 40.2800 -84.1481 268° West 423 487 25,000 -1,260 Descending Indianapolis Center
12:06PM 40.2758 -84.3008 268° West 415 478 24,000 -540 Descending Indianapolis Center
12:07PM 40.2700 -84.4456 267° West 398 458 24,000  Level Indianapolis Center
12:08PM 40.2664 -84.5961 268° West 410 472 24,000  Level Indianapolis Center
12:09PM 40.2619 -84.7472 268° West 413 475 24,000 -840 Level Indianapolis Center
12:10PM 40.2561 -84.9044 267° West 402 463 22,400 -1,560 Descending Indianapolis Center
12:11PM 40.2508 -85.0450 267° West 386 444 20,900 -1,500 Descending Indianapolis Center
12:12PM 40.2453 -85.1867 267° West 390 449 19,400 -1,740 Descending Indianapolis Center
12:13PM 40.2406 -85.3236 267° West 377 434 17,400 -2,520 Descending Indianapolis Center
12:14PM 40.2083 -85.4614 253° West 340 391 14,300 -2,880 Descending Indianapolis Center
12:15PM 40.1633 -85.5672 241° Southwest 332 382 11,500 -1,680 Descending Indianapolis Center
12:16PM 40.1225 -85.6583 240° Southwest 289 333 10,900 -900 Descending Indianapolis Center
12:17PM 40.0622 -85.7142 215° Southwest 265 305 9,700 -1,320 Descending Indianapolis Center
12:18PM 40.0044 -85.7700 217° Southwest 259 298 8,200 -1,380 Descending Indianapolis Center
12:19PM 39.9528 -85.8178 215° Southwest 234 269 6,900 -1,380 Descending Indianapolis Center
12:20PM 39.9431 -85.8908 260° West 221 254 5,400 -960 Descending Indianapolis Center
12:22PM 39.9428 -85.9675 270° West 214 246 5,000 -240 Descending Indianapolis Center
12:23PM 39.9139 -86.0317 240° Southwest 215 247 5,000 -60 Level Indianapolis Center
12:24PM 39.8708 -86.0850 224° Southwest 192 221 4,900 -480 Descending Indianapolis Center
12:25PM 39.8333 -86.1333 225° Southwest 163 188 4,100 -840 Descending Indianapolis TRACON
12:26PM 39.8000 -86.1667 218° Southwest 167 192 3,200 -960 Descending Indianapolis TRACON
12:27PM 39.7833 -86.2000 237° Southwest 164 189 2,300 -840 Descending Indianapolis TRACON
12:28PM 39.7500 -86.2500 229° Southwest 133 153 1,600 -660 Descending Indianapolis TRACON